createdAt,value
2019-06-08T00:01:55.804Z,100578.36
2019-06-08T00:04:29.730Z,100579.25
2019-06-08T00:06:59.208Z,100580.86
2019-06-08T00:09:27.931Z,100590.94
2019-06-08T00:12:03.100Z,100596.98
2019-06-08T00:14:36.064Z,100599.72
2019-06-08T00:17:06.760Z,100606.78
2019-06-08T00:19:38.504Z,100602.98
2019-06-08T00:22:08.424Z,100603.53
2019-06-08T00:24:37.117Z,100613.61
2019-06-08T00:27:08.521Z,100606.54
2019-06-08T00:29:37.307Z,100617.45
2019-06-08T00:32:08.729Z,100623.16
2019-06-08T00:34:40.447Z,100624.27
2019-06-08T00:37:12.071Z,100631.87
2019-06-08T00:39:48.132Z,100631.03
2019-06-08T00:42:19.262Z,100638.38
2019-06-08T00:44:50.853Z,100635.65
2019-06-08T00:52:58.810Z,100652.86
2019-06-08T00:55:29.855Z,100651.50
2019-06-08T00:58:14.904Z,100650.42
2019-06-08T01:00:44.962Z,100656.14
2019-06-08T01:03:19.604Z,100667.06
2019-06-08T01:05:48.481Z,100667.34
2019-06-08T01:08:25.513Z,100666.52
2019-06-08T01:11:06.311Z,100677.19
2019-06-08T01:13:35.014Z,100673.93
2019-06-08T01:16:08.133Z,100681.30
2019-06-08T01:18:37.312Z,100681.05
2019-06-08T01:21:07.205Z,100690.31
2019-06-08T01:23:38.267Z,100690.86
2019-06-08T01:26:07.284Z,100685.98
2019-06-08T01:28:35.936Z,100684.09
2019-06-08T01:31:04.721Z,100696.61
2019-06-08T01:33:34.164Z,100697.44
2019-06-08T01:36:02.944Z,100701.52
2019-06-08T01:38:32.479Z,100715.93
2019-06-08T01:41:01.269Z,100710.45
2019-06-08T01:43:31.825Z,100717.77
2019-06-08T01:46:00.593Z,100720.19
2019-06-08T01:48:32.822Z,100721.78
2019-06-08T01:51:02.143Z,100725.03
2019-06-08T01:53:34.568Z,100730.74
2019-06-08T01:56:03.218Z,100728.55
2019-06-08T02:01:23.523Z,100731.55
2019-06-08T02:03:54.389Z,100734.23
2019-06-08T02:06:28.424Z,100740.25
2019-06-08T02:09:00.137Z,100746.24
2019-06-08T02:11:44.237Z,100750.58
2019-06-08T02:14:13.019Z,100757.69
2019-06-08T02:16:47.588Z,100749.74
2019-06-08T02:19:21.880Z,100755.75
2019-06-08T02:21:51.678Z,100754.13
2019-06-08T02:24:21.836Z,100762.63
2019-06-08T02:26:55.967Z,100764.28
2019-06-08T02:29:24.616Z,100761.84
2019-06-08T02:31:53.260Z,100768.91
2019-06-08T02:34:23.417Z,100766.45
2019-06-08T02:36:52.105Z,100767.01
2019-06-08T02:39:21.925Z,100768.08
2019-06-08T02:41:50.631Z,100773.54
2019-06-08T02:44:21.502Z,100774.62
2019-06-08T02:46:50.210Z,100777.35
2019-06-08T02:49:21.174Z,100777.11
2019-06-08T02:51:50.424Z,100781.18
2019-06-08T02:54:23.357Z,100780.69
2019-06-08T02:56:56.043Z,100788.34
2019-06-08T02:59:29.217Z,100793.52
2019-06-08T03:02:00.522Z,100792.39
2019-06-08T03:04:32.423Z,100803.84
2019-06-08T03:07:03.761Z,100798.95
2019-06-08T03:09:38.626Z,100807.91
2019-06-08T03:12:14.529Z,100807.91
2019-06-08T03:14:44.947Z,100808.48
2019-06-08T03:17:14.189Z,100813.95
2019-06-08T03:19:49.022Z,100811.22
2019-06-08T03:22:19.686Z,100812.29
2019-06-08T03:24:52.465Z,100817.16
2019-06-08T03:27:22.165Z,100816.08
2019-06-08T03:29:50.808Z,100815.20
2019-06-08T03:32:22.751Z,100815.73
2019-06-08T03:34:56.289Z,100824.75
2019-06-08T03:37:21.685Z,100820.66
2019-06-08T03:39:55.450Z,100825.58
2019-06-08T03:42:29.376Z,100825.00
2019-06-08T03:44:58.029Z,100823.39
2019-06-08T03:47:32.188Z,100828.55
2019-06-08T03:50:00.787Z,100826.10
2019-06-08T03:52:29.427Z,100837.55
2019-06-08T03:54:58.914Z,100843.02
2019-06-08T03:57:30.807Z,100840.28
2019-06-08T04:00:02.333Z,100856.09
2019-06-08T04:02:31.629Z,100857.22
2019-06-08T04:05:00.985Z,100866.55
2019-06-08T04:07:29.563Z,100857.29
2019-06-08T04:10:00.259Z,100872.06
2019-06-08T04:12:29.332Z,100871.77
2019-06-08T04:14:58.009Z,100879.47
2019-06-08T04:17:32.632Z,100890.93
2019-06-08T04:20:11.646Z,100885.19
2019-06-08T04:22:44.459Z,100900.48
2019-06-08T04:25:16.108Z,100905.12
2019-06-08T04:27:57.996Z,100905.41
2019-06-08T04:30:34.057Z,100919.86
2019-06-08T04:33:05.578Z,100920.17
2019-06-08T04:35:42.682Z,100923.16
2019-06-08T04:38:13.123Z,100924.77
2019-06-08T04:40:48.498Z,100938.70
2019-06-08T04:43:17.550Z,100937.05
2019-06-08T04:45:49.780Z,100944.70
2019-06-08T04:48:22.435Z,100946.84
2019-06-08T04:50:54.126Z,100955.86
2019-06-08T04:53:22.711Z,100961.86
2019-06-08T04:55:52.977Z,100956.41
2019-06-08T04:58:21.720Z,100961.61
2019-06-08T05:00:55.888Z,100967.07
2019-06-08T05:03:24.646Z,100977.17
2019-06-08T05:06:00.838Z,100985.91
2019-06-08T05:08:30.090Z,100976.63
2019-06-08T05:11:02.110Z,100984.28
2019-06-08T05:13:33.083Z,100990.03
2019-06-08T05:16:10.355Z,100996.56
2019-06-08T05:18:49.715Z,100996.56
2019-06-08T05:27:59.563Z,101019.98
2019-06-08T05:30:37.063Z,101023.25
2019-06-08T05:33:05.844Z,101028.72
2019-06-08T05:35:37.323Z,101036.38
2019-06-08T05:38:05.984Z,101034.50
2019-06-08T05:40:37.918Z,101042.95
2019-06-08T05:43:09.969Z,101043.23
2019-06-08T05:45:41.871Z,101048.98
2019-06-08T05:48:10.479Z,101055.80
2019-06-08T05:50:55.853Z,101053.33
2019-06-08T05:53:10.412Z,101060.44
2019-06-08T05:55:42.132Z,101061.80
2019-06-08T05:58:12.808Z,101060.69
2019-06-08T06:00:52.989Z,101063.67
2019-06-08T06:03:21.672Z,101069.95
2019-06-08T06:05:50.857Z,101075.13
2019-06-08T06:08:20.470Z,101074.84
2019-06-08T06:10:50.811Z,101078.11
2019-06-08T06:13:21.353Z,101080.55
2019-06-08T06:15:56.245Z,101096.11
2019-06-08T06:18:26.380Z,101090.90
2019-06-08T06:21:09.820Z,101103.73
2019-06-08T06:23:27.437Z,101091.68
2019-06-08T06:25:57.627Z,101094.13
2019-06-08T06:28:26.277Z,101102.28
2019-06-08T06:30:54.929Z,101109.10
2019-06-08T06:33:25.607Z,101113.95
2019-06-08T06:35:55.817Z,101116.95
2019-06-08T06:38:24.572Z,101131.13
2019-06-08T06:40:55.033Z,101131.37
2019-06-08T06:43:32.084Z,101144.20
2019-06-08T06:46:04.208Z,101148.84
2019-06-08T06:48:33.689Z,101147.52
2019-06-08T06:51:02.555Z,101155.46
2019-06-08T06:53:34.237Z,101147.27
2019-06-08T06:56:02.885Z,101163.38
2019-06-08T06:58:35.150Z,101166.64
2019-06-08T07:01:06.469Z,101176.20
2019-06-08T07:03:38.310Z,101174.02
2019-06-08T07:06:12.611Z,101186.56
2019-06-08T07:08:46.196Z,101194.22
2019-06-08T07:11:17.664Z,101198.58
2019-06-08T07:13:55.135Z,101199.11
2019-06-08T07:16:28.449Z,101200.22
2019-06-08T07:18:59.148Z,101210.29
2019-06-08T07:21:40.954Z,101198.48
2019-06-08T07:24:24.103Z,101213.23
2019-06-08T07:26:59.737Z,101226.31
2019-06-08T07:29:29.871Z,101223.30
2019-06-08T07:31:59.374Z,101231.50
2019-06-08T07:34:33.359Z,101234.52
2019-06-08T07:37:01.971Z,101238.91
2019-06-08T07:39:39.063Z,101250.63
2019-06-08T07:45:40.766Z,101265.16
2019-06-08T07:48:09.440Z,101265.73
2019-06-08T07:50:41.244Z,101274.97
2019-06-08T07:53:11.074Z,101272.53
2019-06-08T07:55:45.431Z,101283.22
2019-06-08T07:58:17.240Z,101286.94
2019-06-08T08:00:52.560Z,101283.41
2019-06-08T08:03:20.940Z,101293.58
2019-06-08T08:06:16.589Z,101293.58
2019-06-08T08:08:48.441Z,101294.05
2019-06-08T08:11:50.953Z,101305.80
2019-06-08T08:14:26.949Z,101311.06
2019-06-08T08:20:53.180Z,101315.16
2019-06-08T08:34:59.224Z,101343.61
2019-06-08T08:37:40.107Z,101351.00
2019-06-08T08:40:11.128Z,101349.31
2019-06-08T08:43:01.539Z,101358.94
2019-06-08T08:45:29.455Z,101366.06
2019-06-08T08:48:20.072Z,101381.19
2019-06-08T08:50:38.281Z,101376.05
2019-06-08T08:53:23.250Z,101375.86
2019-06-08T08:55:52.342Z,101382.80
2019-06-08T08:58:23.142Z,101396.25
2019-06-08T09:01:00.124Z,101395.70
2019-06-08T09:03:40.944Z,101399.42
2019-06-08T09:06:10.288Z,101387.77
2019-06-08T09:08:42.855Z,101402.44
2019-06-08T09:11:13.922Z,101404.47
2019-06-08T09:13:44.901Z,101408.61
2019-06-08T09:16:13.661Z,101411.09
2019-06-08T09:18:47.850Z,101411.94
2019-06-08T09:21:18.598Z,101428.30
2019-06-08T09:24:00.800Z,101422.73
2019-06-08T09:26:31.418Z,101427.41
2019-06-08T09:29:04.861Z,101431.66
2019-06-08T09:31:33.485Z,101445.23
2019-06-08T09:34:15.035Z,101451.38
2019-06-08T09:36:47.800Z,101439.12
2019-06-08T09:39:20.297Z,101445.36
2019-06-08T09:41:50.933Z,101437.03
2019-06-08T09:44:30.844Z,101448.21
2019-06-08T09:47:04.607Z,101444.88
2019-06-08T09:49:30.176Z,101449.39
2019-06-08T09:52:05.140Z,101456.76
2019-06-08T09:54:41.497Z,101456.17
2019-06-08T09:57:18.820Z,101457.72
2019-06-08T09:59:54.741Z,101464.08
2019-06-08T10:02:28.339Z,101464.08
2019-06-08T10:05:00.550Z,101481.06
2019-06-08T10:10:31.820Z,101494.41
2019-06-08T10:13:05.386Z,101492.67
2019-06-08T10:15:33.912Z,101495.38
2019-06-08T10:18:03.342Z,101489.55
2019-06-08T10:20:34.651Z,101493.87
2019-06-08T10:23:06.421Z,101501.13
2019-06-08T10:25:38.534Z,101496.31
2019-06-08T10:28:14.042Z,101501.34
2019-06-08T10:30:50.770Z,101510.55
2019-06-08T10:33:22.352Z,101517.34
2019-06-08T10:35:55.720Z,101523.61
2019-06-08T10:38:28.959Z,101516.73
2019-06-08T10:41:14.807Z,101522.56
2019-06-08T10:43:34.234Z,101530.34
2019-06-08T10:46:10.023Z,101521.10
2019-06-08T10:48:50.633Z,101528.63
2019-06-08T10:51:19.380Z,101520.38
2019-06-08T10:53:53.233Z,101537.63
2019-06-08T10:56:24.996Z,101544.45
2019-06-08T10:58:55.079Z,101548.09
2019-06-08T11:01:29.562Z,101546.88
2019-06-08T11:04:07.167Z,101546.95
2019-06-08T11:06:40.763Z,101553.98
2019-06-08T11:09:14.865Z,101566.23
2019-06-08T11:11:48.183Z,101560.44
2019-06-08T11:14:22.919Z,101559.89
2019-06-08T11:17:19.491Z,101573.30
2019-06-08T11:22:53.016Z,101570.42
2019-06-08T11:25:23.172Z,101571.34
2019-06-08T11:27:52.256Z,101575.62
2019-06-08T11:30:29.827Z,101589.67
2019-06-08T11:32:57.760Z,101595.54
2019-06-08T11:35:28.620Z,101599.20
2019-06-08T11:38:00.209Z,101599.74
2019-06-08T11:40:32.446Z,101611.26
2019-06-08T11:43:04.596Z,101613.69
2019-06-08T11:45:37.999Z,101608.44
2019-06-08T11:48:08.631Z,101615.91
2019-06-08T11:50:42.741Z,101615.61
2019-06-08T11:53:14.857Z,101609.81
2019-06-08T11:55:44.866Z,101618.50
2019-06-08T11:58:30.780Z,101614.23
2019-06-08T12:01:11.655Z,101625.73
2019-06-08T12:03:38.725Z,101629.16
2019-06-08T12:06:14.633Z,101627.16
2019-06-08T12:08:43.782Z,101629.08
2019-06-08T12:11:19.694Z,101630.45
2019-06-08T12:13:48.425Z,101630.78
2019-06-08T12:16:21.915Z,101638.78
2019-06-08T12:18:49.524Z,101633.28
2019-06-08T12:21:18.751Z,101637.41
2019-06-08T12:23:50.761Z,101634.95
2019-06-08T12:26:21.402Z,101633.84
2019-06-08T12:28:50.354Z,101649.31
2019-06-08T12:31:40.098Z,101645.52
2019-06-08T12:34:11.110Z,101654.35
2019-06-08T12:36:42.979Z,101655.73
2019-06-08T12:39:12.065Z,101661.77
2019-06-08T12:41:40.914Z,101662.91
2019-06-08T12:44:14.680Z,101660.23
2019-06-08T12:46:44.863Z,101663.54
2019-06-08T12:49:18.816Z,101671.48
2019-06-08T12:51:51.732Z,101661.92
2019-06-08T12:54:21.021Z,101663.31
2019-06-08T12:56:53.128Z,101660.61
2019-06-08T12:59:23.105Z,101667.20
2019-06-08T13:01:58.654Z,101664.50
2019-06-08T13:04:30.214Z,101669.16
2019-06-08T13:07:01.599Z,101670.25
2019-06-08T13:09:30.533Z,101671.67
2019-06-08T13:12:01.855Z,101681.77
2019-06-08T13:14:30.930Z,101677.64
2019-06-08T13:17:02.065Z,101685.58
2019-06-08T13:19:31.480Z,101686.41
2019-06-08T13:22:00.143Z,101686.94
2019-06-08T13:24:33.460Z,101690.47
2019-06-08T13:27:05.041Z,101687.41
2019-06-08T13:29:36.649Z,101692.81
2019-06-08T13:32:09.814Z,101698.70
2019-06-08T13:34:40.326Z,101709.31
2019-06-08T13:37:10.585Z,101701.84
2019-06-08T13:39:39.736Z,101700.77
2019-06-08T13:42:11.280Z,101707.89
2019-06-08T13:44:40.050Z,101711.97
2019-06-08T13:47:12.526Z,101707.73
2019-06-08T13:49:41.888Z,101708.00
2019-06-08T13:52:10.575Z,101714.90
2019-06-08T13:54:41.124Z,101708.61
2019-06-08T13:57:09.788Z,101713.00
2019-06-08T13:59:38.988Z,101706.17
2019-06-08T14:02:11.019Z,101723.20
2019-06-08T14:04:46.125Z,101728.96
2019-06-08T14:07:22.996Z,101723.52
2019-06-08T14:09:51.261Z,101730.41
2019-06-08T14:12:24.034Z,101727.70
2019-06-08T14:14:53.152Z,101729.63
2019-06-08T14:17:25.358Z,101736.80
2019-06-08T14:19:55.639Z,101738.47
2019-06-08T14:22:28.495Z,101732.99
2019-06-08T14:24:57.611Z,101733.28
2019-06-08T14:27:28.553Z,101735.51
2019-06-08T14:29:58.410Z,101737.12
2019-06-08T14:32:34.602Z,101728.09
2019-06-08T14:35:03.420Z,101734.12
2019-06-08T14:37:33.896Z,101741.77
2019-06-08T14:40:14.169Z,101745.05
2019-06-08T14:42:44.311Z,101753.28
2019-06-08T14:45:19.654Z,101754.91
2019-06-08T14:47:48.823Z,101759.58
2019-06-08T14:50:19.484Z,101755.51
2019-06-08T14:52:52.554Z,101762.37
2019-06-08T14:55:24.743Z,101754.34
2019-06-08T14:58:00.093Z,101761.10
2019-06-08T15:00:29.718Z,101758.88
2019-06-08T15:02:59.483Z,101764.16
2019-06-08T15:05:32.133Z,101763.33
2019-06-08T15:08:13.374Z,101765.45
2019-06-08T15:10:44.154Z,101773.07
2019-06-08T15:13:12.758Z,101786.52
2019-06-08T15:15:43.060Z,101771.41
2019-06-08T15:18:18.550Z,101791.49
2019-06-08T15:20:51.854Z,101782.40
2019-06-08T15:23:28.938Z,101781.84
2019-06-08T15:25:58.308Z,101777.74
2019-06-08T15:28:31.534Z,101789.57
2019-06-08T15:31:00.062Z,101796.67
2019-06-08T15:33:33.761Z,101788.41
2019-06-08T15:36:03.625Z,101791.16
2019-06-08T15:38:38.043Z,101798.53
2019-06-08T15:41:07.798Z,101790.33
2019-06-08T15:43:40.381Z,101793.92
2019-06-08T15:46:09.607Z,101792.31
2019-06-08T15:48:40.822Z,101788.33
2019-06-08T15:51:11.859Z,101800.50
2019-06-08T15:53:43.351Z,101795.89
2019-06-08T15:56:14.704Z,101805.45
2019-06-08T15:58:43.352Z,101804.85
2019-06-08T16:01:14.841Z,101804.08
2019-06-08T16:03:50.438Z,101805.20
2019-06-08T16:06:18.992Z,101803.84
2019-06-08T16:08:48.403Z,101808.26
2019-06-08T16:11:21.455Z,101805.27
2019-06-08T16:13:50.083Z,101813.23
2019-06-08T16:16:20.058Z,101809.92
2019-06-08T16:18:49.180Z,101811.26
2019-06-08T16:21:18.760Z,101820.31
2019-06-08T16:23:48.339Z,101820.03
2019-06-08T16:26:17.207Z,101826.08
2019-06-08T16:28:47.773Z,101825.84
2019-06-08T16:31:16.599Z,101829.18
2019-06-08T16:33:55.889Z,101826.49
2019-06-08T16:36:36.065Z,101826.80
2019-06-08T16:39:08.387Z,101830.39
2019-06-08T16:41:37.750Z,101848.00
2019-06-08T16:44:07.505Z,101833.72
2019-06-08T16:46:43.985Z,101843.06
2019-06-08T16:49:12.602Z,101845.80
2019-06-08T16:51:41.836Z,101852.67
2019-06-08T16:54:17.765Z,101848.85
2019-06-08T16:56:46.420Z,101854.58
2019-06-08T16:59:15.146Z,101857.32
2019-06-08T17:01:44.959Z,101860.02
2019-06-08T17:04:15.603Z,101856.73
2019-06-08T17:09:32.522Z,101854.03
2019-06-08T17:12:06.837Z,101857.61
2019-06-08T17:14:38.754Z,101855.42
2019-06-08T17:17:08.488Z,101857.67
2019-06-08T17:19:38.411Z,101854.94
2019-06-08T17:22:15.965Z,101857.73
2019-06-08T17:24:44.772Z,101863.53
2019-06-08T17:27:26.404Z,101868.50
2019-06-08T17:29:44.021Z,101861.38
2019-06-08T17:32:15.289Z,101870.99
2019-06-08T17:34:50.218Z,101870.73
2019-06-08T17:37:20.772Z,101868.23
2019-06-08T17:39:51.699Z,101876.92
2019-06-08T17:42:20.455Z,101875.24
2019-06-08T17:44:51.197Z,101879.06
2019-06-08T17:47:24.062Z,101883.97
2019-06-08T17:49:56.085Z,101882.06
2019-06-08T17:52:27.236Z,101884.31
2019-06-08T17:54:59.314Z,101873.62
2019-06-08T17:57:49.456Z,101887.89
2019-06-08T18:00:14.687Z,101886.23
2019-06-08T18:02:49.191Z,101888.48
2019-06-08T18:05:20.944Z,101886.34
2019-06-08T18:07:53.418Z,101896.55
2019-06-08T18:10:23.687Z,101898.21
2019-06-08T18:12:55.055Z,101893.55
2019-06-08T18:15:28.382Z,101885.02
2019-06-08T18:17:57.834Z,101897.38
2019-06-08T18:20:28.481Z,101896.59
2019-06-08T18:22:58.774Z,101902.13
2019-06-08T18:25:27.903Z,101902.43
2019-06-08T18:28:09.240Z,101898.89
2019-06-08T18:30:29.566Z,101904.39
2019-06-08T18:32:58.313Z,101907.43
2019-06-08T18:35:34.622Z,101906.06
2019-06-08T18:38:07.301Z,101905.02
2019-06-08T18:40:40.165Z,101914.09
2019-06-08T18:43:09.869Z,101914.66
2019-06-08T18:45:40.915Z,101909.17
2019-06-08T18:48:11.164Z,101912.75
2019-06-08T18:50:41.011Z,101913.29
2019-06-08T18:53:10.895Z,101922.61
2019-06-08T18:55:41.579Z,101920.98
2019-06-08T18:58:21.096Z,101929.22
2019-06-08T19:00:50.008Z,101922.90
2019-06-08T19:03:20.299Z,101929.54
2019-06-08T19:05:50.524Z,101926.54
2019-06-08T19:08:23.553Z,101930.94
2019-06-08T19:10:52.765Z,101936.45
2019-06-08T19:13:21.624Z,101935.11
2019-06-08T19:15:59.634Z,101934.57
2019-06-08T19:18:29.657Z,101934.57
2019-06-08T19:21:01.823Z,101937.58
2019-06-08T19:23:34.586Z,101936.42
2019-06-08T19:26:04.951Z,101941.09
2019-06-08T19:28:38.756Z,101938.89
2019-06-08T19:31:12.913Z,101943.00
2019-06-08T19:33:52.661Z,101944.12
2019-06-08T19:36:18.109Z,101944.95
2019-06-08T19:38:54.514Z,101943.05
2019-06-08T19:41:20.055Z,101954.34
2019-06-08T19:43:54.551Z,101948.30
2019-06-08T19:46:27.015Z,101956.02
2019-06-08T19:48:58.956Z,101954.12
2019-06-08T19:51:28.495Z,101954.41
2019-06-08T19:53:59.168Z,101958.79
2019-06-08T19:56:31.579Z,101960.46
2019-06-08T19:59:08.375Z,101978.04
2019-06-08T20:01:37.942Z,101978.04
2019-06-08T20:04:10.421Z,101978.82
2019-06-08T20:06:45.540Z,101976.10
2019-06-08T20:09:17.910Z,101977.48
2019-06-08T20:11:52.558Z,101979.67
2019-06-08T20:14:19.195Z,101982.95
2019-06-08T20:16:49.621Z,101982.96
2019-06-08T20:19:18.991Z,101987.88
2019-06-08T20:21:51.575Z,101987.62
2019-06-08T20:24:27.698Z,101994.17
2019-06-08T20:26:57.723Z,102004.34
2019-06-08T20:29:28.274Z,102004.34
2019-06-08T20:31:58.237Z,102008.72
2019-06-08T20:34:31.238Z,102013.92
2019-06-08T20:37:01.534Z,102012.26
2019-06-08T20:39:38.299Z,102016.08
2019-06-08T20:42:11.873Z,102022.11
2019-06-08T20:44:38.918Z,102021.55
2019-06-08T20:47:13.938Z,102025.92
2019-06-08T20:49:53.475Z,102028.14
2019-06-08T20:52:25.154Z,102028.14
2019-06-08T20:54:54.184Z,102032.52
2019-06-08T20:57:29.178Z,102038.27
2019-06-08T20:59:59.502Z,102040.17
2019-06-08T21:06:12.676Z,102050.02
2019-06-08T21:08:44.040Z,102056.86
2019-06-08T21:11:14.394Z,102051.08
2019-06-08T21:13:52.201Z,102051.08
2019-06-08T21:16:38.308Z,102054.09
2019-06-08T21:19:12.888Z,102057.39
2019-06-08T21:21:45.623Z,102052.99
2019-06-08T21:24:14.647Z,102055.70
2019-06-08T21:26:50.785Z,102053.52
2019-06-08T21:29:19.109Z,102048.30
2019-06-08T21:31:52.248Z,102053.48
2019-06-08T21:34:20.288Z,102053.76
2019-06-08T21:36:49.877Z,102053.76
2019-06-08T21:39:36.693Z,102059.49
2019-06-08T21:42:14.098Z,102060.86
2019-06-08T21:44:43.529Z,102060.04
2019-06-08T21:47:12.419Z,102059.19
2019-06-08T21:49:47.517Z,102060.29
2019-06-08T21:52:18.368Z,102060.29
2019-06-08T21:54:50.503Z,102062.22
2019-06-08T21:57:30.160Z,102057.01
2019-06-08T22:00:34.629Z,102061.41
2019-06-08T22:02:48.011Z,102059.19
2019-06-08T22:05:17.179Z,102061.09
2019-06-08T22:07:50.062Z,102057.55
2019-06-08T22:10:18.856Z,102064.14
2019-06-08T22:12:53.811Z,102065.78
2019-06-08T22:15:22.904Z,102068.81
2019-06-08T22:18:00.135Z,102068.52
2019-06-08T22:20:27.903Z,102068.00
2019-06-08T22:23:03.717Z,102066.91
2019-06-08T22:25:33.349Z,102068.30
2019-06-08T22:28:07.028Z,102064.20
2019-06-08T22:30:42.753Z,102056.23
2019-06-08T22:33:09.624Z,102063.89
2019-06-08T22:35:38.849Z,102061.97
2019-06-08T22:38:08.397Z,102057.01
2019-06-08T22:40:39.950Z,102061.11
2019-06-08T22:43:08.600Z,102061.33
2019-06-08T22:45:43.462Z,102061.00
2019-06-08T22:48:12.181Z,102062.09
2019-06-08T22:50:42.724Z,102062.09
2019-06-08T22:53:13.202Z,102060.72
2019-06-08T22:55:43.308Z,102059.91
2019-06-08T22:58:13.720Z,102059.70
2019-06-08T23:00:52.462Z,102057.22
2019-06-08T23:03:18.805Z,102062.91
2019-06-08T23:05:59.181Z,102064.56
2019-06-08T23:11:19.062Z,102061.70
2019-06-08T23:13:52.109Z,102065.99
2019-06-08T23:16:28.556Z,102058.53
2019-06-08T23:19:00.612Z,102060.14
2019-06-08T23:21:34.008Z,102055.95
2019-06-08T23:24:12.630Z,102060.25
2019-06-08T23:26:48.051Z,102068.64
2019-06-08T23:29:19.922Z,102065.80
2019-06-08T23:31:52.433Z,102061.63
2019-06-08T23:34:23.177Z,102067.63
2019-06-08T23:36:58.619Z,102065.16
2019-06-08T23:39:24.489Z,102065.12
2019-06-08T23:42:08.036Z,102064.84
2019-06-08T23:44:41.096Z,102063.70
2019-06-08T23:47:12.630Z,102070.50
2019-06-08T23:49:41.296Z,102071.59
2019-06-08T23:52:11.785Z,102071.59
2019-06-08T23:54:47.786Z,102069.39
2019-06-08T23:57:18.436Z,102071.86
2019-06-08T23:59:47.801Z,102065.56
